This is the latest recevied weather packets stored in our database for station/object M0HPP-13. If no packets are shown the sender has not sent any weather packets the latest 10 day(s).
| Time | Temp. | Humidity | Pressure | Rain* | Wind** | Luminosity | Snow |
|---|---|---|---|---|---|---|---|
| 1777541419 | 12.78° C | 56% | 1025.1 hPa | 0 mm | - | 198 W/m² | - |
| 1777540819 | 12.78° C | 50% | 1025.2 hPa | 0 mm | - | 388 W/m² | - |
| 1777540219 | 12.22° C | 50% | 1025.3 hPa | 0 mm | - | 379 W/m² | - |
| 1777539619 | 12.78° C | 52% | 1025.2 hPa | 0 mm | - | 366 W/m² | - |
| 1777539019 | 12.22° C | 53% | 1025.3 hPa | 0 mm | - | 352 W/m² | - |
| 1777538419 | 12.22° C | 53% | 1025.4 hPa | 0 mm | - | 335 W/m² | - |
| 1777537819 | 11.67° C | 56% | 1025.5 hPa | 0 mm | - | 319 W/m² | - |
| 1777537219 | 12.22° C | 58% | 1025.5 hPa | 0 mm | - | 304 W/m² | - |
| 1777536619 | 12.22° C | 62% | 1025.5 hPa | 0 mm | - | 287 W/m² | - |
| 1777536019 | 12.22° C | 59% | 1025.5 hPa | 0 mm | - | 271 W/m² | - |
| 1777535419 | 11.67° C | 65% | 1025.5 hPa | 0 mm | - | 255 W/m² | - |
| 1777534819 | 10.56° C | 77% | 1025.6 hPa | 0 mm | - | 172 W/m² | - |
| 1777534219 | 10.56° C | 80% | 1025.6 hPa | 0 mm | - | 134 W/m² | - |
| 1777533619 | 10.56° C | 78% | 1025.8 hPa | 0 mm | - | 112 W/m² | - |
| 1777533019 | 10° C | 82% | 1025.8 hPa | 0 mm | - | 98 W/m² | - |
| 1777532419 | 10° C | 84% | 1025.7 hPa | 0 mm | - | 92 W/m² | - |
| 1777531819 | 10° C | 85% | 1025.8 hPa | 0 mm | - | 114 W/m² | - |
| 1777531219 | 9.44° C | 88% | 1025.8 hPa | 0 mm | - | 116 W/m² | - |
| 1777530619 | 10° C | 88% | 1025.8 hPa | 0 mm | - | 114 W/m² | - |
| 1777530019 | 10° C | 88% | 1025.8 hPa | 0 mm | - | 108 W/m² | - |
| 1777529419 | 10° C | 86% | 1025.9 hPa | 0 mm | - | 85 W/m² | - |
| 1777528819 | 8.89° C | 91% | 1026 hPa | 0 mm | - | 72 W/m² | - |
| 1777528219 | 7.78° C | 93% | 1025.9 hPa | 0 mm | - | 61 W/m² | - |
| 1777527619 | 6.67° C | 94% | 1025.8 hPa | 0 mm | - | 50 W/m² | - |
| 1777527019 | 6.11° C | 96% | 1026.1 hPa | 0 mm | - | 38 W/m² | - |
* Rain latest hour (hover to see other rain measurements)
** Current wind speed in m/s (hover to see current wind gust speed)